LFGA METAR and TAF | Updated Today

LFGA METAR

Colmar-Houssen Airport

Observation time: 6 min. ago

LFGA 061930Z AUTO 34002KT 9999 BKN037 14/12 Q1030

Need help? Read our tutorial on how to read METARs or read the parsed version below.

Colmar-Houssen Airport (LFGA) METAR

  • Weather conditions on Thu, 06 Oct 2022 19:30:00 +0000 (6 min. ago):
  • Present conditions: Dry
  • Clouds: Broken sky at 1128 meters
  • Visibility: Greater than 10 km
  • Wind: 340 degrees at 2 knots
  • Temperature: 14 celsius
  • Dew point: 12 celsius
  • Pressure: 1030 millibars
  • Remarks: None


Useful to know...

  • Codes: LFGA/CMR
  • Airport elevation: 628ft
  • Municipality: Colmar/Houssen
  • Country: France
  • Continent: Europe